Time;durP1;ratioP1;P1;durP2;ratioP2;P2;SDS_P1;SDS_P2;PMS_P1;PMS_P2;Temp;Humidity;BMP_temperature;BMP_pressure;BME280_temperature;BME280_humidity;BME280_pressure;Samples;Min_cycle;Max_cycle;Signal;HPM_P1;HPM_P2
2020/12/24 00:00:25;;;;;;;7.63;1.30;;;25.00;62.00;;;;;;5070890;28;20569;-74
2020/12/24 00:02:52;;;;;;;11.33;2.03;;;25.10;61.10;;;;;;5069858;28;20186;-74
2020/12/24 00:05:20;;;;;;;7.50;1.27;;;25.00;60.30;;;;;;5074362;28;20215;-76
2020/12/24 00:07:47;;;;;;;7.50;1.70;;;25.20;59.80;;;;;;5062213;28;20194;-75
2020/12/24 00:10:16;;;;;;;5.43;1.53;;;25.20;59.00;;;;;;5066573;28;20183;-73
2020/12/24 00:12:43;;;;;;;10.27;1.70;;;25.50;57.80;;;;;;5064674;28;20240;-76
2020/12/24 00:15:11;;;;;;;9.03;1.67;;;25.40;59.10;;;;;;5069375;28;20638;-76
2020/12/24 00:17:38;;;;;;;7.40;1.50;;;25.50;59.10;;;;;;5067147;28;20202;-75
2020/12/24 00:20:07;;;;;;;9.77;1.90;;;25.10;59.10;;;;;;5067035;28;20194;-75
2020/12/24 00:22:34;;;;;;;8.03;1.63;;;25.30;60.20;;;;;;5070762;28;20175;-78
2020/12/24 00:25:03;;;;;;;4.83;1.30;;;25.70;59.50;;;;;;5071528;28;20229;-76
2020/12/24 00:27:30;;;;;;;8.07;1.83;;;25.90;59.80;;;;;;5057951;28;20186;-75
2020/12/24 00:29:58;;;;;;;7.10;1.77;;;26.00;56.80;;;;;;5071243;28;20266;-76
2020/12/24 00:32:25;;;;;;;8.60;1.20;;;26.10;56.70;;;;;;5066777;28;20205;-75
2020/12/24 00:34:53;;;;;;;4.77;1.13;;;26.00;57.30;;;;;;5072936;28;20653;-77
2020/12/24 00:37:20;;;;;;;6.63;1.73;;;26.20;57.00;;;;;;5072935;28;20263;-75
2020/12/24 00:39:47;;;;;;;10.33;1.53;;;26.30;58.10;;;;;;5072349;28;20258;-73
2020/12/24 00:42:15;;;;;;;4.60;1.43;;;26.10;57.30;;;;;;5071864;28;20562;-76
2020/12/24 00:44:42;;;;;;;5.83;1.40;;;26.10;57.90;;;;;;5072960;28;20540;-76
2020/12/24 00:47:10;;;;;;;8.47;2.43;;;26.10;57.20;;;;;;5072754;28;20187;-75
2020/12/24 00:49:37;;;;;;;6.87;1.57;;;26.50;57.20;;;;;;5072598;28;20187;-77
2020/12/24 00:52:04;;;;;;;6.27;1.23;;;26.90;56.90;;;;;;5072068;28;20179;-76
2020/12/24 00:54:32;;;;;;;6.07;1.57;;;27.00;56.10;;;;;;5065444;28;20188;-76
2020/12/24 00:56:59;;;;;;;6.90;1.57;;;27.10;56.40;;;;;;5052422;28;20227;-75
2020/12/24 00:59:26;;;;;;;7.20;1.20;;;27.10;57.60;;;;;;5071882;28;20681;-74
2020/12/24 01:01:54;;;;;;;4.97;1.60;;;27.10;54.80;;;;;;5072248;28;20179;-76
2020/12/24 01:04:21;;;;;;;8.77;1.37;;;26.70;52.80;;;;;;5072756;28;20172;-75
2020/12/24 01:06:49;;;;;;;4.73;1.60;;;26.80;52.90;;;;;;5072716;28;20225;-76
2020/12/24 01:09:16;;;;;;;10.27;1.50;;;26.90;52.50;;;;;;5072603;28;20178;-74
2020/12/24 01:11:43;;;;;;;5.87;1.30;;;26.90;53.80;;;;;;5056669;28;20190;-75
2020/12/24 01:14:11;;;;;;;10.73;1.97;;;26.80;54.60;;;;;;5063909;28;20183;-77
2020/12/24 01:16:38;;;;;;;15.00;2.23;;;27.00;55.10;;;;;;5071196;28;20175;-75
2020/12/24 01:19:05;;;;;;;13.93;2.50;;;26.90;59.90;;;;;;5072245;28;20629;-75
2020/12/24 01:21:33;;;;;;;7.30;2.13;;;26.80;61.10;;;;;;5072173;28;20236;-75
2020/12/24 01:24:00;;;;;;;11.23;2.23;;;27.00;61.10;;;;;;5072164;28;20226;-77
2020/12/24 01:26:27;;;;;;;9.93;2.07;;;27.10;60.70;;;;;;5071858;28;20183;-76
2020/12/24 01:28:55;;;;;;;11.17;2.47;;;26.90;61.90;;;;;;5071536;28;20656;-75
2020/12/24 01:31:23;;;;;;;7.87;1.50;;;26.90;61.50;;;;;;5060444;28;20598;-75
2020/12/24 01:33:50;;;;;;;7.97;1.80;;;26.80;61.70;;;;;;5064158;28;20175;-75
2020/12/24 01:36:22;;;;;;;14.60;2.47;;;26.60;62.70;;;;;;5071380;28;20186;-74
2020/12/24 01:38:49;;;;;;;10.53;2.47;;;26.90;62.20;;;;;;5065154;28;20614;-75
2020/12/24 01:41:17;;;;;;;9.10;1.80;;;27.20;61.60;;;;;;5071530;28;20206;-75
2020/12/24 01:43:44;;;;;;;12.27;2.03;;;27.80;61.00;;;;;;5071080;28;20187;-74
2020/12/24 01:46:15;;;;;;;11.40;2.57;;;27.30;60.80;;;;;;5071408;28;20183;-76
2020/12/24 01:48:42;;;;;;;13.23;2.43;;;27.30;60.90;;;;;;5068308;28;20564;-75
2020/12/24 01:51:17;;;;;;;12.53;2.30;;;27.10;61.30;;;;;;5069623;28;20180;-74
2020/12/24 01:53:45;;;;;;;10.03;2.00;;;27.10;61.80;;;;;;5073012;28;20867;-75
2020/12/24 01:56:14;;;;;;;13.83;1.87;;;27.00;61.80;;;;;;5072125;28;20183;-74
2020/12/24 01:58:41;;;;;;;13.40;1.80;;;27.10;62.70;;;;;;5073946;28;20229;-74
2020/12/24 02:01:09;;;;;;;11.67;2.00;;;27.50;61.40;;;;;;5069458;28;20194;-75
2020/12/24 02:03:36;;;;;;;10.97;2.27;;;27.60;61.30;;;;;;5072921;28;20563;-75
2020/12/24 02:06:04;;;;;;;11.57;2.73;;;27.90;60.90;;;;;;5073964;28;20175;-75
2020/12/24 02:08:32;;;;;;;10.23;2.00;;;28.00;60.60;;;;;;5073871;28;20887;-75
2020/12/24 02:11:01;;;;;;;11.47;1.70;;;28.20;60.00;;;;;;5073200;28;20172;-75
2020/12/24 02:13:28;;;;;;;12.43;2.07;;;28.20;60.70;;;;;;5075272;28;20171;-75
2020/12/24 02:15:56;;;;;;;7.80;2.13;;;27.90;60.80;;;;;;5074839;28;20191;-75
2020/12/24 02:18:25;;;;;;;7.93;2.00;;;27.80;61.30;;;;;;5075462;28;21028;-75
2020/12/24 02:20:52;;;;;;;12.27;2.73;;;27.80;61.20;;;;;;5075656;28;20248;-75
2020/12/24 02:23:20;;;;;;;12.17;2.40;;;27.60;62.10;;;;;;5074310;28;20274;-77
2020/12/24 02:25:47;;;;;;;9.53;2.47;;;27.40;61.90;;;;;;5062898;28;20231;-78
2020/12/24 02:28:14;;;;;;;12.60;2.30;;;27.70;61.70;;;;;;5073953;28;20262;-76
2020/12/24 02:30:42;;;;;;;15.57;3.27;;;27.70;62.50;;;;;;5075079;28;20164;-76
2020/12/24 02:33:09;;;;;;;9.23;2.27;;;27.60;61.60;;;;;;5073803;28;20179;-76
2020/12/24 02:35:37;;;;;;;15.97;2.40;;;27.70;62.20;;;;;;5074958;28;20637;-75
2020/12/24 02:38:04;;;;;;;8.30;2.07;;;28.10;61.10;;;;;;5074997;28;20215;-77
2020/12/24 02:40:31;;;;;;;14.63;2.20;;;28.20;61.00;;;;;;5075295;28;20641;-76
2020/12/24 02:42:59;;;;;;;7.70;2.33;;;28.20;60.20;;;;;;5074716;28;20186;-77
2020/12/24 02:45:26;;;;;;;10.07;2.47;;;28.20;60.40;;;;;;5075012;28;20214;-76
2020/12/24 02:47:53;;;;;;;12.30;1.93;;;27.60;61.20;;;;;;5074233;28;20176;-77
2020/12/24 02:50:21;;;;;;;12.83;2.53;;;27.30;62.60;;;;;;5074533;28;20179;-77
2020/12/24 02:52:49;;;;;;;10.17;2.40;;;27.30;62.90;;;;;;5074955;28;20179;-76
2020/12/24 02:55:16;;;;;;;13.47;2.27;;;27.30;63.70;;;;;;5074565;28;20250;-74
2020/12/24 02:57:43;;;;;;;11.33;2.70;;;27.50;62.70;;;;;;5073563;28;20214;-76
2020/12/24 03:00:12;;;;;;;9.33;1.93;;;27.60;62.80;;;;;;5072862;28;20179;-76
2020/12/24 03:02:40;;;;;;;14.27;2.10;;;27.70;62.00;;;;;;5074763;28;20526;-75
2020/12/24 03:05:08;;;;;;;13.27;2.03;;;27.60;62.60;;;;;;5072198;28;20233;-77
2020/12/24 03:07:36;;;;;;;12.00;1.93;;;28.10;61.00;;;;;;5074602;28;20240;-78
2020/12/24 03:10:04;;;;;;;14.23;2.00;;;27.60;61.00;;;;;;5074171;28;20259;-76
2020/12/24 03:12:31;;;;;;;10.77;1.80;;;27.50;62.20;;;;;;5074492;28;20175;-76
2020/12/24 03:14:58;;;;;;;16.07;2.43;;;27.30;63.00;;;;;;5074479;28;20179;-76
2020/12/24 03:17:26;;;;;;;13.17;2.10;;;27.30;62.60;;;;;;5074780;28;20233;-77
2020/12/24 03:19:53;;;;;;;10.13;1.97;;;27.40;62.20;;;;;;5074501;28;20567;-80
2020/12/24 03:22:20;;;;;;;11.87;2.03;;;27.40;62.20;;;;;;5071443;28;20229;-77
2020/12/24 03:24:48;;;;;;;12.53;1.90;;;27.60;62.30;;;;;;5074390;28;20722;-81
2020/12/24 03:27:15;;;;;;;10.47;2.57;;;28.00;60.90;;;;;;5070994;28;20190;-75
2020/12/24 03:29:42;;;;;;;8.23;2.20;;;28.10;60.40;;;;;;5073677;28;20183;-76
2020/12/24 03:32:10;;;;;;;13.00;2.07;;;28.30;60.60;;;;;;5073975;28;20700;-78
2020/12/24 03:34:37;;;;;;;7.30;2.00;;;28.70;59.20;;;;;;5074043;28;20206;-74
2020/12/24 03:37:04;;;;;;;13.73;2.60;;;28.50;59.40;;;;;;5072488;28;20688;-77
2020/12/24 03:39:32;;;;;;;14.13;2.10;;;28.60;59.10;;;;;;5074121;28;20657;-74
2020/12/24 03:41:59;;;;;;;9.10;2.00;;;28.50;59.60;;;;;;5073638;28;20175;-75
2020/12/24 03:44:26;;;;;;;6.30;1.60;;;28.70;59.00;;;;;;5073973;28;20668;-76
2020/12/24 03:46:54;;;;;;;11.20;2.37;;;28.90;58.10;;;;;;5073655;28;20183;-77
2020/12/24 03:49:21;;;;;;;12.70;2.90;;;29.20;58.20;;;;;;5073860;28;20186;-76
2020/12/24 03:51:49;;;;;;;10.57;2.40;;;29.10;58.10;;;;;;5073622;28;20179;-77
2020/12/24 03:54:16;;;;;;;9.63;2.17;;;29.20;57.40;;;;;;5073738;28;20638;-76
2020/12/24 03:56:43;;;;;;;11.33;2.03;;;29.30;57.70;;;;;;5073426;28;20183;-76
2020/12/24 03:59:10;;;;;;;12.87;2.50;;;29.20;57.40;;;;;;5073855;28;20186;-76
2020/12/24 04:01:38;;;;;;;12.00;2.10;;;29.00;58.00;;;;;;5072832;28;20660;-76
2020/12/24 04:04:05;;;;;;;11.27;1.80;;;28.90;58.30;;;;;;5074007;28;20206;-75
2020/12/24 04:06:32;;;;;;;9.93;2.10;;;29.20;57.40;;;;;;5057585;28;20187;-78
2020/12/24 04:09:00;;;;;;;7.20;2.28;;;28.90;57.80;;;;;;5065845;28;20187;-79
2020/12/24 04:11:27;;;;;;;12.60;2.43;;;28.90;57.20;;;;;;5072620;28;20228;-77
2020/12/24 04:13:54;;;;;;;8.00;2.10;;;28.70;58.40;;;;;;5073310;28;20182;-78
2020/12/24 04:16:23;;;;;;;11.70;2.10;;;28.80;58.60;;;;;;5073709;28;20186;-81
2020/12/24 04:18:51;;;;;;;10.20;1.80;;;29.10;57.80;;;;;;5072237;28;20214;-77
2020/12/24 04:21:20;;;;;;;10.50;1.90;;;29.10;57.40;;;;;;5073433;28;20237;-76
2020/12/24 04:23:47;;;;;;;14.98;2.28;;;29.20;57.50;;;;;;5072619;28;20187;-76
2020/12/24 04:26:23;;;;;;;13.05;2.10;;;29.40;57.50;;;;;;5072967;28;20293;-77
2020/12/24 04:28:51;;;;;;;9.03;1.97;;;29.60;56.20;;;;;;5073633;28;20174;-83
2020/12/24 04:31:18;;;;;;;14.33;2.53;;;29.50;56.00;;;;;;5073187;28;20659;-75
2020/12/24 04:33:46;;;;;;;15.90;2.20;;;29.20;55.60;;;;;;5073082;28;20274;-78
2020/12/24 04:36:15;;;;;;;15.63;2.17;;;29.30;56.00;;;;;;5073148;28;20183;-78
2020/12/24 04:38:43;;;;;;;16.52;4.20;;;29.60;56.20;;;;;;5072817;28;20222;-76
2020/12/24 04:41:11;;;;;;;16.33;2.67;;;29.90;55.20;;;;;;5072880;28;20606;-77
2020/12/24 04:43:40;;;;;;;15.50;3.40;;;29.80;55.20;;;;;;5072806;28;20621;-82
2020/12/24 04:46:10;;;;;;;10.63;2.67;;;29.50;55.60;;;;;;5072847;28;20258;-79
2020/12/24 04:48:40;;;;;;;9.00;2.37;;;29.30;55.80;;;;;;5073547;28;20186;-76
2020/12/24 04:51:12;;;;;;;10.27;2.15;;;29.50;56.00;;;;;;5072847;28;20649;-75
2020/12/24 04:53:39;;;;;;;14.73;2.35;;;29.70;55.70;;;;;;5073426;28;20657;-77
2020/12/24 04:56:10;;;;;;;11.68;2.90;;;29.90;54.60;;;;;;5072554;28;20183;-78
2020/12/24 04:58:39;;;;;;;8.77;1.67;;;29.90;55.20;;;;;;5071971;28;20215;-80
2020/12/24 05:01:10;;;;;;;10.02;2.00;;;29.70;54.30;;;;;;5072980;28;20187;-76
2020/12/24 05:03:37;;;;;;;9.60;2.58;;;29.60;55.30;;;;;;5072767;28;20197;-75
2020/12/24 05:06:04;;;;;;;10.18;2.00;;;29.70;55.20;;;;;;5072481;28;20252;-81
2020/12/24 05:08:32;;;;;;;10.20;2.30;;;29.40;55.00;;;;;;5072813;28;20184;-77
2020/12/24 05:11:09;;;;;;;10.15;1.98;;;28.90;56.80;;;;;;5072279;28;20179;-76
2020/12/24 05:13:36;;;;;;;16.30;2.30;;;29.00;56.80;;;;;;5073131;28;20546;-77
2020/12/24 05:16:17;;;;;;;9.07;2.00;;;29.30;56.00;;;;;;5072979;28;20210;-74
2020/12/24 05:18:44;;;;;;;10.77;2.03;;;28.90;56.50;;;;;;5072749;28;20294;-76
2020/12/24 05:21:11;;;;;;;11.50;2.35;;;28.60;57.40;;;;;;5072173;28;20211;-76
2020/12/24 05:23:39;;;;;;;10.10;2.17;;;29.00;57.10;;;;;;5072181;28;20209;-75
2020/12/24 05:26:19;;;;;;;11.83;2.10;;;29.10;56.60;;;;;;5070717;28;20554;-75
2020/12/24 05:28:47;;;;;;;14.15;2.25;;;29.00;56.90;;;;;;5075289;28;20178;-76
2020/12/24 05:31:32;;;;;;;8.97;2.00;;;28.90;57.20;;;;;;5075033;28;20187;-75
2020/12/24 05:34:00;;;;;;;8.07;1.77;;;29.60;56.30;;;;;;5075738;28;20254;-77
2020/12/24 05:36:27;;;;;;;7.70;1.73;;;29.70;55.50;;;;;;5076415;28;20167;-76
2020/12/24 05:38:55;;;;;;;11.27;2.10;;;30.10;55.20;;;;;;5076321;28;20205;-76
2020/12/24 05:41:36;;;;;;;7.93;1.95;;;30.10;54.40;;;;;;5076271;28;20278;-76
2020/12/24 05:44:03;;;;;;;7.60;1.73;;;30.50;54.00;;;;;;5074927;28;20182;-78
2020/12/24 05:46:44;;;;;;;11.57;2.20;;;30.40;53.90;;;;;;5075371;28;20182;-77
2020/12/24 05:49:16;;;;;;;16.13;2.30;;;30.10;54.20;;;;;;5064257;28;20182;-77
2020/12/24 05:51:54;;;;;;;10.63;2.03;;;30.00;54.40;;;;;;5056004;28;20661;-77
2020/12/24 05:54:22;;;;;;;11.15;2.00;;;30.40;54.90;;;;;;5072934;28;20179;-78
2020/12/24 05:56:49;;;;;;;13.32;1.98;;;30.30;53.90;;;;;;5074875;28;20180;-77
2020/12/24 05:59:24;;;;;;;12.65;2.88;;;30.50;53.60;;;;;;5074771;28;20210;-79
2020/12/24 06:02:13;;;;;;;10.73;2.30;;;30.90;53.10;;;;;;5075324;28;20174;-78
2020/12/24 06:04:51;;;;;;;12.30;1.90;;;31.00;52.30;;;;;;5076579;28;20752;-75
2020/12/24 06:07:35;;;;;;;13.00;2.63;;;30.70;52.90;;;;;;5072033;28;20167;-76
2020/12/24 06:10:09;;;;;;;6.85;1.98;;;30.50;53.80;;;;;;5074682;28;20175;-77
2020/12/24 06:12:51;;;;;;;14.95;2.35;;;30.50;53.60;;;;;;5074377;28;20175;-77
2020/12/24 06:15:18;;;;;;;9.20;2.42;;;30.90;53.30;;;;;;5074744;28;20206;-75
2020/12/24 06:17:50;;;;;;;13.85;2.55;;;30.70;53.10;;;;;;5075384;28;20203;-76
2020/12/24 06:20:19;;;;;;;9.30;2.47;;;30.60;53.80;;;;;;5075269;28;20176;-78
2020/12/24 06:22:48;;;;;;;12.13;2.25;;;30.70;53.60;;;;;;5075944;28;20233;-77
2020/12/24 06:25:15;;;;;;;11.43;3.08;;;30.10;55.00;;;;;;5075516;28;20227;-79
2020/12/24 06:27:54;;;;;;;12.03;2.33;;;29.90;55.90;;;;;;5074959;28;20211;-76
2020/12/24 06:30:24;;;;;;;12.13;2.67;;;29.60;56.90;;;;;;5075160;28;20174;-76
2020/12/24 06:32:55;;;;;;;10.48;2.10;;;29.90;56.20;;;;;;5075923;28;20171;-78
2020/12/24 06:35:39;;;;;;;11.60;2.30;;;29.70;56.60;;;;;;5075991;28;20186;-75
2020/12/24 06:38:08;;;;;;;13.70;2.05;;;29.30;57.20;;;;;;5074109;28;20242;-74
2020/12/24 06:40:38;;;;;;;12.20;2.22;;;29.40;57.60;;;;;;5073727;28;20175;-74
2020/12/24 06:43:06;;;;;;;15.97;2.97;;;29.10;58.60;;;;;;5075161;28;20228;-75
2020/12/24 06:45:39;;;;;;;16.05;3.08;;;29.30;58.10;;;;;;5073274;28;20665;-74
2020/12/24 06:48:19;;;;;;;15.73;3.33;;;29.30;58.10;;;;;;5074704;28;20171;-73
2020/12/24 06:51:03;;;;;;;15.33;2.63;;;29.20;57.90;;;;;;5073238;28;20635;-74
2020/12/24 06:53:30;;;;;;;12.60;2.17;;;29.50;57.60;;;;;;5074709;28;20191;-75
2020/12/24 06:56:16;;;;;;;12.07;2.50;;;29.20;58.00;;;;;;5073696;28;20657;-74
2020/12/24 06:58:53;;;;;;;10.90;2.43;;;29.30;57.90;;;;;;5056980;28;20211;-74
2020/12/24 07:01:31;;;;;;;16.37;2.53;;;29.40;57.80;;;;;;5063284;28;20175;-77
2020/12/24 07:04:01;;;;;;;15.63;2.83;;;29.30;57.90;;;;;;5061425;28;20244;-78
2020/12/24 07:06:45;;;;;;;12.13;2.60;;;29.60;58.10;;;;;;5074799;28;20201;-78
2020/12/24 07:09:33;;;;;;;13.00;2.70;;;29.50;58.10;;;;;;5074916;28;20297;-76
2020/12/24 07:12:01;;;;;;;13.37;2.63;;;29.00;59.20;;;;;;5071075;28;20191;-78
2020/12/24 07:14:32;;;;;;;11.10;2.57;;;28.80;59.70;;;;;;5074313;28;20629;-75
2020/12/24 07:17:12;;;;;;;26.50;12.73;;;28.40;60.50;;;;;;5074119;28;20183;-76
2020/12/24 07:19:42;;;;;;;12.97;5.17;;;28.40;61.70;;;;;;5059614;28;20221;-78
2020/12/24 07:22:18;;;;;;;13.63;3.93;;;28.20;61.80;;;;;;5054315;28;20186;-78
2020/12/24 07:24:57;;;;;;;13.90;3.50;;;27.80;63.20;;;;;;5071139;28;20283;-76
2020/12/24 07:27:25;;;;;;;15.63;3.13;;;27.30;64.00;;;;;;5074653;28;20183;-78
2020/12/24 07:29:52;;;;;;;13.47;2.80;;;27.00;65.40;;;;;;5074216;28;20167;-76
2020/12/24 07:32:22;;;;;;;18.23;3.27;;;26.70;67.20;;;;;;5073945;28;20709;-75
2020/12/24 07:34:50;;;;;;;15.23;2.83;;;26.50;67.40;;;;;;5074369;28;20175;-76
2020/12/24 07:37:17;;;;;;;10.77;2.37;;;26.30;67.80;;;;;;5073829;28;20763;-73
2020/12/24 07:39:56;;;;;;;14.80;2.53;;;26.20;68.20;;;;;;5074189;28;20229;-74
2020/12/24 07:42:26;;;;;;;15.03;2.67;;;26.00;68.80;;;;;;5073863;28;20174;-75
2020/12/24 07:44:54;;;;;;;14.50;2.97;;;25.90;69.60;;;;;;5073612;28;20236;-74
2020/12/24 07:47:22;;;;;;;15.03;2.37;;;25.80;70.30;;;;;;5073675;28;20714;-74
2020/12/24 07:49:51;;;;;;;17.13;3.20;;;25.60;70.90;;;;;;5074044;28;20163;-74
2020/12/24 07:52:18;;;;;;;14.27;2.33;;;25.50;71.50;;;;;;5073250;28;20561;-76
2020/12/24 07:54:46;;;;;;;13.80;2.43;;;25.40;71.70;;;;;;5072546;28;20281;-75
2020/12/24 07:57:24;;;;;;;18.73;2.93;;;25.20;72.50;;;;;;5073113;28;20502;-77
2020/12/24 08:00:00;;;;;;;15.23;2.83;;;24.90;73.20;;;;;;5060831;28;20210;-74
2020/12/24 08:02:28;;;;;;;14.90;3.03;;;24.70;74.10;;;;;;5073624;28;20182;-74
2020/12/24 08:04:55;;;;;;;15.77;2.87;;;24.70;74.90;;;;;;5073734;28;20163;-76
2020/12/24 08:07:23;;;;;;;18.33;3.20;;;24.80;75.00;;;;;;5066779;28;20181;-75
2020/12/24 08:09:50;;;;;;;12.40;2.90;;;24.70;75.30;;;;;;5073261;28;20168;-75
2020/12/24 08:12:22;;;;;;;13.00;3.00;;;24.60;75.70;;;;;;5071837;28;20183;-75
2020/12/24 08:14:50;;;;;;;15.03;2.83;;;24.60;76.10;;;;;;5072963;28;20205;-75
2020/12/24 08:17:41;;;;;;;11.67;2.70;;;24.60;76.10;;;;;;5071624;28;20602;-73
2020/12/24 08:20:10;;;;;;;19.07;3.47;;;24.50;76.10;;;;;;5072709;28;20534;-74
2020/12/24 08:22:43;;;;;;;17.17;3.27;;;24.50;76.40;;;;;;5073334;28;20246;-76
2020/12/24 08:25:12;;;;;;;19.50;3.50;;;24.40;76.50;;;;;;5072760;28;20222;-77
2020/12/24 08:27:39;;;;;;;19.33;3.23;;;24.20;77.70;;;;;;5072984;28;20187;-80
2020/12/24 08:30:10;;;;;;;15.27;2.90;;;24.20;77.50;;;;;;5072826;28;20207;-78
2020/12/24 08:32:39;;;;;;;20.40;3.37;;;24.00;78.70;;;;;;5072598;28;20583;-74
2020/12/24 08:35:14;;;;;;;20.03;3.93;;;23.80;79.20;;;;;;5072901;28;20201;-76
2020/12/24 08:37:42;;;;;;;16.27;3.03;;;23.80;79.80;;;;;;5072605;28;20210;-74
2020/12/24 08:40:26;;;;;;;22.27;4.23;;;23.80;79.80;;;;;;5072052;28;20550;-76
2020/12/24 08:42:59;;;;;;;19.93;3.20;;;23.70;80.00;;;;;;5073380;28;20167;-75
2020/12/24 08:45:27;;;;;;;16.90;3.10;;;23.70;80.30;;;;;;5073180;28;20684;-75
2020/12/24 08:47:55;;;;;;;15.93;3.10;;;23.70;80.00;;;;;;5072900;28;20233;-75
2020/12/24 08:50:33;;;;;;;16.47;3.20;;;23.70;80.30;;;;;;5072746;28;20183;-78
2020/12/24 08:53:05;;;;;;;25.07;3.80;;;23.60;80.50;;;;;;5072959;28;20186;-78
2020/12/24 08:55:33;;;;;;;18.27;4.10;;;23.60;80.70;;;;;;5067534;28;20237;-75
2020/12/24 08:58:01;;;;;;;24.67;4.03;;;23.60;81.30;;;;;;5072701;28;20272;-78
2020/12/24 09:00:28;;;;;;;22.00;3.30;;;23.50;81.60;;;;;;5072541;28;20179;-76
2020/12/24 09:02:55;;;;;;;16.63;2.87;;;23.40;81.70;;;;;;5072109;28;20248;-79
2020/12/24 09:05:25;;;;;;;28.73;3.70;;;23.40;82.00;;;;;;5073338;28;20182;-74
2020/12/24 09:07:52;;;;;;;23.97;3.43;;;23.30;82.60;;;;;;5070308;28;20646;-76
2020/12/24 09:10:28;;;;;;;22.67;3.73;;;23.20;83.20;;;;;;5073145;28;20179;-73
2020/12/24 09:13:03;;;;;;;25.50;3.73;;;23.10;83.60;;;;;;5072970;28;20577;-76
2020/12/24 09:15:30;;;;;;;23.10;5.60;;;23.10;83.90;;;;;;5072152;28;20194;-74
2020/12/24 09:18:00;;;;;;;17.43;5.93;;;23.10;84.00;;;;;;5072483;28;20209;-76
2020/12/24 09:20:29;;;;;;;22.27;4.00;;;23.10;84.30;;;;;;5072627;28;20182;-76
2020/12/24 09:23:01;;;;;;;17.67;3.20;;;23.00;84.50;;;;;;5072433;28;20193;-76
2020/12/24 09:25:39;;;;;;;21.17;3.90;;;23.00;84.80;;;;;;5072341;28;20383;-76
2020/12/24 09:28:23;;;;;;;19.33;3.23;;;23.00;85.20;;;;;;5072476;28;20313;-75
2020/12/24 09:30:53;;;;;;;16.37;3.23;;;23.00;85.20;;;;;;5072243;28;20191;-76
2020/12/24 09:33:20;;;;;;;22.60;3.43;;;23.00;85.10;;;;;;5072192;28;20175;-77
2020/12/24 09:35:48;;;;;;;24.90;4.30;;;23.00;85.40;;;;;;5072559;28;20579;-77
2020/12/24 09:38:15;;;;;;;24.17;3.87;;;23.00;85.10;;;;;;5072065;28;20218;-77
2020/12/24 09:40:43;;;;;;;24.47;4.73;;;23.00;85.40;;;;;;5072358;28;20654;-76
2020/12/24 09:43:10;;;;;;;21.47;4.17;;;23.00;85.10;;;;;;5072335;28;20249;-77
2020/12/24 09:45:38;;;;;;;19.77;3.40;;;23.00;85.10;;;;;;5069966;28;20262;-76
2020/12/24 09:48:06;;;;;;;19.30;4.07;;;23.00;84.80;;;;;;5071854;28;20176;-77
2020/12/24 09:50:35;;;;;;;29.63;10.73;;;23.10;85.00;;;;;;5071997;28;20270;-77
2020/12/24 09:53:03;;;;;;;22.23;4.57;;;23.10;84.70;;;;;;5062799;28;20206;-78
2020/12/24 09:55:30;;;;;;;22.97;4.80;;;23.10;84.90;;;;;;5052309;28;20199;-77
2020/12/24 09:57:58;;;;;;;20.73;4.30;;;23.10;85.20;;;;;;5064818;28;20199;-76
2020/12/24 10:00:25;;;;;;;22.80;6.43;;;23.10;85.40;;;;;;5071935;28;20195;-77
2020/12/24 10:02:52;;;;;;;28.20;6.77;;;23.10;85.70;;;;;;5070932;28;20194;-76
2020/12/24 10:05:20;;;;;;;19.07;3.90;;;23.10;85.90;;;;;;5072250;28;20543;-78
2020/12/24 10:07:47;;;;;;;24.37;4.57;;;23.00;86.40;;;;;;5068339;28;20183;-78
2020/12/24 10:10:15;;;;;;;18.87;3.90;;;22.90;86.70;;;;;;5065124;28;20183;-77
2020/12/24 10:12:42;;;;;;;20.27;3.70;;;22.90;87.10;;;;;;5070596;28;20262;-76
2020/12/24 10:15:09;;;;;;;25.17;4.33;;;22.80;87.40;;;;;;5074125;28;20282;-78
2020/12/24 10:17:36;;;;;;;22.57;3.90;;;22.80;87.90;;;;;;5075715;28;20203;-78
2020/12/24 10:20:04;;;;;;;23.23;3.50;;;22.70;88.20;;;;;;5075116;28;20198;-78
2020/12/24 10:22:31;;;;;;;31.93;4.27;;;22.70;88.30;;;;;;5075524;28;20179;-75
2020/12/24 10:24:58;;;;;;;21.03;3.20;;;22.70;88.30;;;;;;5075369;28;20234;-76
2020/12/24 10:27:26;;;;;;;17.83;3.60;;;22.70;88.40;;;;;;5075417;28;20256;-76
2020/12/24 10:29:53;;;;;;;25.97;4.40;;;22.70;88.50;;;;;;5074244;28;20202;-80
2020/12/24 10:32:20;;;;;;;24.10;3.50;;;22.70;88.30;;;;;;5075163;28;20180;-77
2020/12/24 10:34:48;;;;;;;19.37;3.63;;;22.70;88.20;;;;;;5075172;28;20274;-78
2020/12/24 10:37:16;;;;;;;23.47;4.13;;;22.70;88.50;;;;;;5075186;28;20653;-77
2020/12/24 10:39:43;;;;;;;22.50;4.10;;;22.70;88.40;;;;;;5075231;28;20537;-78
2020/12/24 10:42:11;;;;;;;22.37;4.43;;;22.60;88.60;;;;;;5074912;28;20176;-77
2020/12/24 10:44:39;;;;;;;23.77;3.50;;;22.70;88.40;;;;;;5075193;28;20557;-78
2020/12/24 10:47:06;;;;;;;22.07;3.73;;;22.60;88.50;;;;;;5075775;28;20179;-78
2020/12/24 10:49:34;;;;;;;24.93;3.63;;;22.60;88.70;;;;;;5075649;28;20244;-74
2020/12/24 10:52:01;;;;;;;17.13;3.77;;;22.60;88.90;;;;;;5065690;28;20238;-77
2020/12/24 10:54:28;;;;;;;27.10;3.60;;;22.60;89.10;;;;;;5063709;28;20183;-76
2020/12/24 10:56:55;;;;;;;17.13;3.63;;;22.70;89.00;;;;;;5056585;28;20642;-77
2020/12/24 10:59:23;;;;;;;24.80;3.83;;;22.70;89.00;;;;;;5062413;28;20616;-76
2020/12/24 11:01:50;;;;;;;27.13;4.93;;;22.80;88.90;;;;;;5059945;28;20232;-77
2020/12/24 11:04:18;;;;;;;21.97;3.67;;;22.70;88.80;;;;;;5065108;28;20191;-77
2020/12/24 11:06:45;;;;;;;22.60;4.50;;;22.70;89.00;;;;;;5056269;28;20183;-77
2020/12/24 11:09:14;;;;;;;26.77;4.13;;;22.60;88.90;;;;;;5064595;28;20194;-75
2020/12/24 11:11:43;;;;;;;27.50;4.43;;;22.60;89.10;;;;;;5062574;28;20194;-74
2020/12/24 11:14:11;;;;;;;26.00;4.13;;;22.60;89.00;;;;;;5059980;28;20582;-77
2020/12/24 11:16:38;;;;;;;28.13;4.40;;;22.70;89.00;;;;;;5066145;28;20215;-76
2020/12/24 11:19:06;;;;;;;18.87;3.90;;;22.80;88.40;;;;;;5062872;28;20219;-76
2020/12/24 11:21:34;;;;;;;22.70;4.37;;;22.80;88.20;;;;;;5067062;28;20649;-74
2020/12/24 11:24:06;;;;;;;17.37;3.83;;;22.80;88.20;;;;;;5062566;28;20281;-74
2020/12/24 11:26:40;;;;;;;24.13;4.20;;;22.80;88.20;;;;;;5063550;28;20187;-74
2020/12/24 11:29:08;;;;;;;18.30;3.80;;;22.80;88.40;;;;;;5062824;28;20695;-75
2020/12/24 11:31:37;;;;;;;20.57;3.60;;;22.80;88.50;;;;;;5066025;28;20207;-75
2020/12/24 11:34:06;;;;;;;16.40;2.80;;;22.80;88.20;;;;;;5058775;28;20175;-75
2020/12/24 11:36:34;;;;;;;26.50;4.00;;;22.90;88.10;;;;;;5065586;28;20255;-75
2020/12/24 11:39:03;;;;;;;21.00;4.40;;;22.90;87.90;;;;;;5067111;28;20276;-75
2020/12/24 11:41:31;;;;;;;19.30;2.93;;;22.90;88.30;;;;;;5070487;28;20187;-75
2020/12/24 11:43:59;;;;;;;15.30;3.17;;;22.80;88.40;;;;;;5060856;28;20313;-74
2020/12/24 11:46:27;;;;;;;18.73;3.83;;;22.80;89.30;;;;;;5065141;28;20255;-75
2020/12/24 11:48:56;;;;;;;19.90;3.37;;;22.70;89.90;;;;;;5056433;28;20654;-77
2020/12/24 11:51:24;;;;;;;19.77;3.20;;;22.80;89.80;;;;;;5066378;28;20203;-74
2020/12/24 11:53:53;;;;;;;31.37;3.60;;;22.70;89.90;;;;;;5058709;28;20526;-74
2020/12/24 11:56:22;;;;;;;23.73;4.57;;;22.70;90.00;;;;;;5061921;28;20578;-76
2020/12/24 11:58:51;;;;;;;18.13;3.60;;;22.70;90.10;;;;;;5063084;28;20223;-74
2020/12/24 12:01:20;;;;;;;27.80;4.60;;;22.60;90.10;;;;;;5059870;28;20544;-76
2020/12/24 12:03:48;;;;;;;17.63;3.47;;;22.60;90.20;;;;;;5055498;28;20210;-74
2020/12/24 12:06:16;;;;;;;22.37;3.00;;;22.60;90.10;;;;;;5066215;28;20187;-74
2020/12/24 12:08:44;;;;;;;25.50;3.50;;;22.60;90.10;;;;;;5057599;28;20194;-73
2020/12/24 12:11:11;;;;;;;18.40;3.67;;;22.60;90.10;;;;;;5053237;28;20183;-74
2020/12/24 12:13:39;;;;;;;18.63;2.57;;;22.50;90.10;;;;;;5052297;28;20312;-73
2020/12/24 12:16:10;;;;;;;16.97;3.40;;;22.50;90.10;;;;;;5063284;28;20171;-74
2020/12/24 12:18:38;;;;;;;23.67;3.23;;;22.50;89.90;;;;;;5059210;28;20204;-74
2020/12/24 12:21:06;;;;;;;20.40;3.23;;;22.50;89.80;;;;;;5057054;28;20546;-74
2020/12/24 12:23:34;;;;;;;21.67;3.00;;;22.50;89.50;;;;;;5065583;28;20575;-75
2020/12/24 12:26:03;;;;;;;22.20;3.43;;;22.60;89.30;;;;;;5055710;28;20195;-74
2020/12/24 12:28:30;;;;;;;13.37;2.53;;;22.50;89.10;;;;;;5056411;28;20184;-75
2020/12/24 12:30:57;;;;;;;14.87;2.43;;;22.50;89.30;;;;;;5059314;28;20562;-75
2020/12/24 12:33:25;;;;;;;25.77;3.17;;;22.50;89.20;;;;;;5062308;28;20171;-76
2020/12/24 12:35:52;;;;;;;22.40;3.77;;;22.50;89.10;;;;;;5057607;28;20187;-73
2020/12/24 12:38:19;;;;;;;19.63;3.57;;;22.40;89.20;;;;;;5063197;28;20204;-75
2020/12/24 12:40:47;;;;;;;18.27;3.20;;;22.40;89.10;;;;;;5059484;28;20647;-73
2020/12/24 12:43:14;;;;;;;22.70;2.97;;;22.40;88.90;;;;;;5061721;28;20186;-77
2020/12/24 12:45:41;;;;;;;12.37;2.70;;;22.30;89.00;;;;;;5061282;28;20670;-74
2020/12/24 12:48:09;;;;;;;18.23;2.97;;;22.30;89.30;;;;;;5058058;28;20646;-75